Главная страница
METAR-TAF:

METAR-TAF

Аэропорты :

Гётеборг-Сити

Гётеборг, Швеция

широта: 57-47N, долгота: 011-53E, высота над уровнем моря: 20 м

Текущие метеонаблюдения

Эта сводка был подготовлена 36 минут назад, в 15:20 UTC
Ветер 3 Узел от северо-восточный, изменяющийся между северный и восточно-северо-восточный
Температура 14°C
Влажность 88%
Давление 1006 hPa
Видимость 10 км и более

METAR: ESGP 221520Z AUTO 05003KT 010V070 9999 SCT009/// BKN012/// OVC020/// 14/12 Q1006

Время: 17:56 (15:56 UTC)


TAF: отсутствует

Метеонаблюдения и прогнозы для более 4000 аэропортов (сводки METAR и TAF).

Имеющиеся станции представлены на карте желтыми и красными точками.

Чтобы увидеть название станции, наведите на нее мышь.

Затем щелкните, чтобы увидеть метеонаблюдения и метеопрогнозы.

Управление картой: чтобы увеличить масштаб, щелкните зеленые кнопки с черным крестиком; чтобы уменьшить масштаб, щелкните зеленую кнопку с тире; для просмотра соседних карт щелкайте зеленые стрелки.


METAR-TAF: